Time;durP1;ratioP1;P1;durP2;ratioP2;P2;SDS_P1;SDS_P2;PMS_P1;PMS_P2;Temp;Humidity;BMP_temperature;BMP_pressure;BME280_temperature;BME280_humidity;BME280_pressure;Samples;Min_cycle;Max_cycle;Signal;HPM_P1;HPM_P2
2022/04/07 00:02:17;;;;;;;3.30;2.67;;;;;;;8.08;100.00;95044.78;6366315;22;20282;-62
2022/04/07 00:04:43;;;;;;;2.60;2.45;;;;;;;8.20;100.00;95048.06;6366412;22;19999;-62
2022/04/07 00:07:08;;;;;;;4.20;3.20;;;;;;;8.26;100.00;95050.09;6366712;22;20010;-62
2022/04/07 00:09:34;;;;;;;3.72;3.42;;;;;;;8.24;100.00;95054.66;6367041;22;20343;-62
2022/04/07 00:11:59;;;;;;;3.63;3.33;;;;;;;8.16;100.00;95057.19;6367392;22;20003;-61
2022/04/07 00:14:25;;;;;;;6.28;3.92;;;;;;;8.15;100.00;95051.09;6366178;22;20346;-62
2022/04/07 00:16:50;;;;;;;4.07;3.53;;;;;;;8.03;100.00;95050.44;6366092;22;20017;-61
2022/04/07 00:19:15;;;;;;;2.60;2.40;;;;;;;7.99;100.00;95054.31;6365819;22;20323;-61
2022/04/07 00:21:46;;;;;;;3.05;2.28;;;;;;;8.00;100.00;95066.44;6365943;22;20012;-61
2022/04/07 00:24:12;;;;;;;2.53;2.33;;;;;;;8.00;100.00;95069.06;6366968;22;19998;-61
2022/04/07 00:26:37;;;;;;;3.58;2.03;;;;;;;7.93;100.00;95068.00;6367262;22;20009;-61
2022/04/07 00:29:03;;;;;;;2.65;2.45;;;;;;;8.00;100.00;95073.50;6367054;22;20020;-61
2022/04/07 00:31:31;;;;;;;2.38;2.28;;;;;;;8.06;100.00;95077.34;6366876;22;20007;-61
2022/04/07 00:33:56;;;;;;;4.93;2.40;;;;;;;8.04;100.00;95077.50;6366682;22;20002;-61
2022/04/07 00:36:21;;;;;;;3.20;2.22;;;;;;;8.03;100.00;95076.66;6338979;22;20094;-61
2022/04/07 00:38:47;;;;;;;2.47;2.38;;;;;;;8.00;100.00;95089.22;6366751;22;20052;-61
2022/04/07 00:41:12;;;;;;;2.35;2.15;;;;;;;7.96;100.00;95086.06;6366117;22;20007;-61
2022/04/07 00:43:38;;;;;;;2.63;2.30;;;;;;;7.91;100.00;95088.28;6366086;22;20052;-61
2022/04/07 00:46:04;;;;;;;2.35;2.10;;;;;;;7.93;100.00;95094.22;6366112;22;20006;-61
2022/04/07 00:48:35;;;;;;;2.85;2.15;;;;;;;7.92;100.00;95095.16;6365516;22;19998;-61
2022/04/07 00:51:01;;;;;;;2.50;2.30;;;;;;;7.94;100.00;95108.97;6366076;22;20503;-61
2022/04/07 00:53:26;;;;;;;2.30;2.20;;;;;;;7.93;100.00;95099.44;6366469;22;19999;-61
2022/04/07 00:55:52;;;;;;;1.85;1.77;;;;;;;8.06;100.00;95099.16;6366809;22;20324;-61
2022/04/07 00:58:22;;;;;;;2.42;1.63;;;;;;;8.00;100.00;95107.59;6365878;22;20060;-61
2022/04/07 01:00:48;;;;;;;1.80;1.70;;;;;;;8.05;100.00;95109.75;6366934;22;20003;-61
2022/04/07 01:03:14;;;;;;;1.45;1.45;;;;;;;7.88;100.00;95114.78;6367036;22;20002;-61
2022/04/07 01:05:39;;;;;;;1.67;1.58;;;;;;;7.80;100.00;95112.84;6366863;22;20025;-61
2022/04/07 01:08:09;;;;;;;1.75;1.65;;;;;;;7.72;100.00;95113.53;6366573;22;20051;-61
2022/04/07 01:10:35;;;;;;;1.77;1.70;;;;;;;7.71;100.00;95111.88;6366501;22;20002;-62
2022/04/07 01:13:00;;;;;;;2.80;1.77;;;;;;;7.72;100.00;95104.81;6365353;22;20465;-61
2022/04/07 01:15:26;;;;;;;1.60;1.50;;;;;;;7.70;100.00;95115.47;6365911;22;19999;-61
2022/04/07 01:17:51;;;;;;;2.20;1.65;;;;;;;7.73;100.00;95119.59;6366253;22;20010;-62
2022/04/07 01:20:17;;;;;;;1.58;1.48;;;;;;;7.76;100.00;95118.50;6368064;22;20010;-61
2022/04/07 01:22:45;;;;;;;1.48;1.42;;;;;;;7.76;100.00;95118.50;6368261;22;20037;-61
2022/04/07 01:25:10;;;;;;;1.45;1.45;;;;;;;7.80;100.00;95123.31;6368533;22;19999;-61
2022/04/07 01:27:36;;;;;;;2.97;1.58;;;;;;;7.76;100.00;95121.94;6368251;22;20057;-61
2022/04/07 01:30:09;;;;;;;1.50;1.50;;;;;;;7.73;100.00;95120.44;6368705;22;20002;-61
2022/04/07 01:32:39;;;;;;;1.40;1.40;;;;;;;7.73;100.00;95111.72;6368915;22;20367;-61
2022/04/07 01:35:05;;;;;;;1.80;1.70;;;;;;;7.73;100.00;95106.47;6368609;22;20017;-62
2022/04/07 01:37:32;;;;;;;1.40;1.38;;;;;;;7.65;100.00;95114.22;6368158;22;20033;-61
2022/04/07 01:39:59;;;;;;;1.70;1.60;;;;;;;7.64;100.00;95110.78;6368440;22;20006;-62
2022/04/07 01:42:25;;;;;;;1.85;1.75;;;;;;;7.56;100.00;95114.09;6367829;22;20315;-61
2022/04/07 01:44:55;;;;;;;1.90;1.80;;;;;;;7.56;100.00;95127.19;6367464;22;20078;-61
2022/04/07 01:47:22;;;;;;;1.80;1.67;;;;;;;7.49;100.00;95125.25;6367672;22;20010;-61
2022/04/07 01:50:04;;;;;;;1.85;1.75;;;;;;;7.43;100.00;95118.75;6367588;22;20018;-62
2022/04/07 01:52:32;;;;;;;1.85;1.67;;;;;;;7.43;100.00;95119.59;6367931;22;19999;-61
2022/04/07 01:54:59;;;;;;;2.25;1.80;;;;;;;7.45;100.00;95125.53;6368498;22;20006;-62
2022/04/07 01:57:25;;;;;;;1.85;1.77;;;;;;;7.52;100.00;95117.09;6368257;22;20033;-62
2022/04/07 01:59:51;;;;;;;1.90;1.80;;;;;;;7.57;100.00;95117.53;6367871;22;20434;-61
2022/04/07 02:02:17;;;;;;;1.75;1.60;;;;;;;7.61;100.00;95121.50;6367285;22;20342;-61
2022/04/07 02:04:58;;;;;;;1.65;1.55;;;;;;;7.55;100.00;95117.69;6367642;22;20003;-61
2022/04/07 02:07:28;;;;;;;1.77;1.67;;;;;;;7.52;100.00;95122.34;6367701;22;20040;-62
2022/04/07 02:09:54;;;;;;;1.80;1.70;;;;;;;7.54;100.00;95109.94;6367425;22;20010;-62
2022/04/07 02:12:20;;;;;;;1.60;1.50;;;;;;;7.58;100.00;95108.69;6367476;22;20002;-61
2022/04/07 02:14:49;;;;;;;1.90;1.80;;;;;;;7.59;100.00;95110.34;6367631;22;20013;-61
2022/04/07 02:17:22;;;;;;;2.03;1.85;;;;;;;7.60;100.00;95102.38;6367426;22;20464;-61
2022/04/07 02:19:58;;;;;;;1.70;1.60;;;;;;;7.57;100.00;95102.66;6367620;22;20010;-62
2022/04/07 02:22:23;;;;;;;1.88;1.77;;;;;;;7.57;100.00;95094.78;6368200;22;20461;-61
2022/04/07 02:24:49;;;;;;;2.05;1.63;;;;;;;7.57;100.00;95099.19;6367884;22;20002;-61
2022/04/07 02:27:15;;;;;;;1.38;1.35;;;;;;;7.53;100.00;95098.66;6367136;22;20014;-61
2022/04/07 02:29:44;;;;;;;1.90;1.83;;;;;;;7.55;100.00;95099.34;6366844;22;20090;-61
2022/04/07 02:32:13;;;;;;;1.30;1.30;;;;;;;7.52;100.00;95104.00;6367291;22;20026;-62
2022/04/07 02:34:40;;;;;;;1.80;1.70;;;;;;;7.44;100.00;95099.47;6367194;22;20010;-61
2022/04/07 02:37:06;;;;;;;2.45;1.95;;;;;;;7.37;100.00;95106.22;6367150;22;20014;-61
2022/04/07 02:39:31;;;;;;;1.40;1.40;;;;;;;7.31;100.00;95102.34;6368026;22;20025;-61
2022/04/07 02:41:57;;;;;;;1.70;1.60;;;;;;;7.34;100.00;95096.84;6367881;22;20342;-61
2022/04/07 02:44:22;;;;;;;1.70;1.60;;;;;;;7.27;100.00;95093.09;6366875;22;20066;-61
2022/04/07 02:46:48;;;;;;;2.47;1.80;;;;;;;7.25;100.00;95093.22;6367013;22;20531;-61
2022/04/07 02:49:13;;;;;;;1.60;1.50;;;;;;;7.24;100.00;95088.97;6366976;22;20034;-62
2022/04/07 02:51:39;;;;;;;1.80;1.63;;;;;;;7.21;100.00;95089.25;6366603;22;19998;-61
2022/04/07 02:54:04;;;;;;;1.52;1.52;;;;;;;7.18;100.00;95089.50;6367407;22;20048;-61
2022/04/07 02:56:30;;;;;;;1.40;1.40;;;;;;;7.22;100.00;95090.09;6367840;22;20002;-61
2022/04/07 02:58:56;;;;;;;1.70;1.60;;;;;;;7.26;100.00;95094.06;6368156;22;20081;-61
2022/04/07 03:01:22;;;;;;;1.50;1.40;;;;;;;7.48;100.00;95097.41;6367163;22;20025;-61
2022/04/07 03:03:52;;;;;;;1.70;1.60;;;;;;;7.38;100.00;95098.19;6367851;22;19999;-61
2022/04/07 03:06:18;;;;;;;2.45;1.50;;;;;;;7.28;100.00;95100.00;6367746;22;20108;-60
2022/04/07 03:08:43;;;;;;;1.58;1.58;;;;;;;7.35;100.00;95101.09;6367795;22;20026;-61
2022/04/07 03:11:09;;;;;;;3.08;1.50;;;;;;;7.50;100.00;95104.13;6367348;22;20013;-61
2022/04/07 03:13:38;;;;;;;1.58;1.58;;;;;;;7.33;100.00;95108.28;6366655;22;20006;-61
2022/04/07 03:16:04;;;;;;;1.88;1.77;;;;;;;7.30;100.00;95103.31;6366589;22;20010;-61
2022/04/07 03:18:29;;;;;;;2.75;2.22;;;;;;;7.28;100.00;95100.00;6366613;22;20009;-61
2022/04/07 03:20:55;;;;;;;2.65;1.80;;;;;;;7.24;100.00;95106.47;6367358;22;20082;-62
2022/04/07 03:23:20;;;;;;;1.58;1.58;;;;;;;7.15;100.00;95111.53;6367608;22;19998;-62
2022/04/07 03:25:46;;;;;;;1.88;1.77;;;;;;;7.13;100.00;95108.22;6367675;22;20456;-62
2022/04/07 03:28:12;;;;;;;1.50;1.50;;;;;;;7.11;100.00;95115.41;6367508;22;20073;-61
2022/04/07 03:30:37;;;;;;;1.50;1.40;;;;;;;7.15;100.00;95103.69;6367143;22;20043;-61
2022/04/07 03:33:03;;;;;;;1.42;1.42;;;;;;;7.20;100.00;95102.47;6366720;22;20002;-62
2022/04/07 03:35:28;;;;;;;1.73;1.48;;;;;;;7.24;100.00;95109.09;6366862;22;20059;-62
2022/04/07 03:37:54;;;;;;;2.05;1.50;;;;;;;7.15;100.00;95105.50;6366740;22;20006;-62
2022/04/07 03:40:19;;;;;;;1.30;1.30;;;;;;;7.17;100.00;95111.41;6366375;22;20339;-61
2022/04/07 03:42:44;;;;;;;1.63;1.42;;;;;;;7.06;100.00;95107.13;6338373;22;20038;-61
2022/04/07 03:45:10;;;;;;;1.33;1.23;;;;;;;7.06;100.00;95104.50;6366350;22;20007;-62
2022/04/07 03:47:35;;;;;;;1.60;1.10;;;;;;;7.07;100.00;95106.16;6366411;22;20026;-61
2022/04/07 03:50:01;;;;;;;1.20;1.20;;;;;;;7.07;100.00;95105.31;6366422;22;20089;-61
2022/04/07 03:52:26;;;;;;;1.30;1.30;;;;;;;7.00;100.00;95097.22;6366265;22;20010;-61
2022/04/07 03:54:52;;;;;;;1.33;1.33;;;;;;;7.04;100.00;95093.34;6367149;22;20002;-61
2022/04/07 03:57:18;;;;;;;1.40;1.40;;;;;;;6.98;100.00;95088.66;6366300;22;20009;-62
2022/04/07 03:59:43;;;;;;;1.23;1.23;;;;;;;6.96;100.00;95091.41;6366329;22;20338;-62
2022/04/07 04:02:10;;;;;;;1.90;1.75;;;;;;;6.93;100.00;95083.81;6366199;22;20032;-61
2022/04/07 04:04:36;;;;;;;1.38;1.13;;;;;;;6.90;100.00;95080.63;6366299;22;20073;-62
2022/04/07 04:07:02;;;;;;;1.52;1.52;;;;;;;6.90;100.00;95080.63;6366755;22;20135;-62
2022/04/07 04:09:28;;;;;;;3.95;1.40;;;;;;;6.88;100.00;95072.94;6366903;22;20008;-61
2022/04/07 04:11:53;;;;;;;1.80;1.70;;;;;;;6.91;100.00;95069.22;6366020;22;19999;-61
2022/04/07 04:14:19;;;;;;;1.40;1.30;;;;;;;6.92;100.00;95068.25;6366066;22;20010;-61
2022/04/07 04:16:44;;;;;;;1.40;1.30;;;;;;;6.97;100.00;95073.94;6366196;22;20081;-61
2022/04/07 04:19:10;;;;;;;1.13;1.13;;;;;;;6.93;100.00;95072.50;6366064;22;20013;-61
2022/04/07 04:21:36;;;;;;;1.48;1.38;;;;;;;6.94;100.00;95069.78;6365423;22;20020;-61
2022/04/07 04:24:04;;;;;;;1.45;1.40;;;;;;;6.95;100.00;95076.66;6366051;22;20013;-61
2022/04/07 04:26:30;;;;;;;2.75;1.70;;;;;;;6.94;100.00;95084.63;6366188;22;19994;-61
2022/04/07 04:28:55;;;;;;;1.42;1.40;;;;;;;6.83;100.00;95089.03;6365973;22;20033;-61
2022/04/07 04:31:24;;;;;;;1.33;1.33;;;;;;;6.79;100.00;95085.03;6366229;22;20026;-61
2022/04/07 04:33:53;;;;;;;1.70;1.60;;;;;;;6.78;100.00;95078.16;6338168;22;20010;-61
2022/04/07 04:36:19;;;;;;;1.67;1.67;;;;;;;6.87;100.00;95081.75;6366871;22;20012;-61
2022/04/07 04:38:44;;;;;;;1.80;1.70;;;;;;;6.89;100.00;95085.06;6366984;22;20097;-61
2022/04/07 04:41:09;;;;;;;3.83;1.92;;;;;;;6.82;100.00;95084.75;6367017;22;20788;-61
2022/04/07 04:43:35;;;;;;;2.55;2.35;;;;;;;6.77;100.00;95081.72;6366729;22;20011;-61
2022/04/07 04:46:01;;;;;;;2.33;2.22;;;;;;;6.74;100.00;95084.59;6367189;22;20014;-61
2022/04/07 04:48:27;;;;;;;3.05;2.85;;;;;;;6.76;100.00;95074.84;6366935;22;20002;-61
2022/04/07 04:50:52;;;;;;;2.95;2.67;;;;;;;6.90;100.00;95078.03;6366642;22;20014;-61
2022/04/07 04:53:17;;;;;;;2.72;2.53;;;;;;;6.84;100.00;95064.53;6367003;22;20449;-61
2022/04/07 04:55:43;;;;;;;2.67;2.55;;;;;;;6.82;100.00;95063.00;6370143;22;20006;-61
2022/04/07 04:58:08;;;;;;;2.67;2.47;;;;;;;6.77;100.00;95052.94;6369793;22;20442;-61
2022/04/07 05:00:34;;;;;;;2.83;2.63;;;;;;;6.80;100.00;95055.28;6369361;22;20040;-61
2022/04/07 05:02:59;;;;;;;2.05;1.95;;;;;;;6.75;100.00;95057.50;6369318;22;20383;-61
2022/04/07 05:05:25;;;;;;;2.90;2.22;;;;;;;6.76;100.00;95059.13;6369699;22;20405;-61
2022/04/07 05:07:50;;;;;;;3.75;2.40;;;;;;;6.69;100.00;95069.31;6369733;22;20426;-61
2022/04/07 05:10:15;;;;;;;2.20;2.10;;;;;;;6.74;100.00;95068.88;6370061;22;20014;-61
2022/04/07 05:12:41;;;;;;;1.90;1.80;;;;;;;6.70;100.00;95064.88;6370216;22;20036;-61
2022/04/07 05:15:07;;;;;;;2.78;1.70;;;;;;;6.87;100.00;95061.63;6370502;22;20393;-61
2022/04/07 05:17:33;;;;;;;1.50;1.50;;;;;;;6.73;100.00;95064.63;6370069;22;20003;-61
2022/04/07 05:19:58;;;;;;;1.50;1.50;;;;;;;6.72;100.00;95068.19;6369857;22;20021;-61
2022/04/07 05:22:23;;;;;;;2.20;2.10;;;;;;;6.73;100.00;95062.00;6368638;22;20100;-61
2022/04/07 05:24:49;;;;;;;2.30;2.20;;;;;;;6.72;100.00;95073.44;6369859;22;20094;-61
2022/04/07 05:27:16;;;;;;;4.57;3.97;;;;;;;6.73;100.00;95069.84;6369356;22;20006;-61
2022/04/07 05:29:41;;;;;;;2.60;2.40;;;;;;;6.72;100.00;95076.03;6369207;22;20006;-61
2022/04/07 05:32:07;;;;;;;3.30;3.00;;;;;;;6.74;100.00;95069.72;6368291;22;20074;-61
2022/04/07 05:34:32;;;;;;;2.00;1.90;;;;;;;6.75;100.00;95078.41;6368651;22;20018;-61
2022/04/07 05:36:58;;;;;;;1.42;1.42;;;;;;;6.76;100.00;95076.63;6369551;22;20010;-61
2022/04/07 05:39:24;;;;;;;2.20;2.10;;;;;;;6.84;100.00;95082.00;6368897;22;19999;-61
2022/04/07 05:41:49;;;;;;;2.17;2.08;;;;;;;6.83;100.00;95082.97;6369088;22;20007;-61
2022/04/07 05:44:14;;;;;;;2.70;2.60;;;;;;;6.82;100.00;95079.53;6368543;22;20040;-61
2022/04/07 05:46:40;;;;;;;2.42;2.33;;;;;;;6.85;100.00;95079.25;6366796;22;20069;-61
2022/04/07 05:49:05;;;;;;;2.78;2.45;;;;;;;6.95;100.00;95078.44;6367651;22;20018;-61
2022/04/07 05:51:30;;;;;;;5.55;5.05;;;;;;;6.95;100.00;95081.91;6368257;22;20010;-61
2022/04/07 05:53:56;;;;;;;4.90;4.18;;;;;;;7.04;100.00;95082.88;6369640;22;20051;-62
2022/04/07 05:56:21;;;;;;;3.10;2.90;;;;;;;7.10;100.00;95078.91;6369143;22;20091;-62
2022/04/07 05:58:47;;;;;;;2.95;2.20;;;;;;;7.14;100.00;95073.25;6367884;22;20003;-63
2022/04/07 06:01:12;;;;;;;1.60;1.60;;;;;;;7.30;100.00;95074.50;6368623;22;19998;-62
2022/04/07 06:03:38;;;;;;;1.70;1.60;;;;;;;7.21;100.00;95073.53;6368383;22;20002;-62
2022/04/07 06:06:03;;;;;;;1.70;1.70;;;;;;;7.12;100.00;95074.34;6367583;22;20013;-62
2022/04/07 06:08:28;;;;;;;1.65;1.55;;;;;;;7.12;100.00;95074.34;6367749;22;19998;-62
2022/04/07 06:10:54;;;;;;;4.50;1.73;;;;;;;7.14;100.00;95090.75;6366122;22;20002;-62
2022/04/07 06:13:19;;;;;;;1.75;1.65;;;;;;;7.16;100.00;95091.44;6364252;22;20101;-62
2022/04/07 06:15:45;;;;;;;1.77;1.73;;;;;;;7.19;100.00;95098.22;6366881;22;20473;-62
2022/04/07 06:18:10;;;;;;;1.50;1.50;;;;;;;7.26;100.00;95104.56;6367433;22;20528;-62
2022/04/07 06:20:36;;;;;;;3.90;1.95;;;;;;;7.29;100.00;95102.50;6367237;22;20007;-62
2022/04/07 06:23:01;;;;;;;1.50;1.50;;;;;;;7.33;100.00;95108.28;6365140;22;20346;-62
2022/04/07 06:25:27;;;;;;;3.85;3.60;;;;;;;7.30;100.00;95114.63;6367064;22;20074;-63
2022/04/07 06:27:52;;;;;;;19.17;13.18;;;;;;;7.33;100.00;95123.97;6367805;22;20022;-62
2022/04/07 06:30:20;;;;;;;22.90;14.80;;;;;;;7.31;100.00;95125.91;6367977;22;20002;-65
2022/04/07 06:32:47;;;;;;;17.92;13.45;;;;;;;7.26;100.00;95126.31;6340226;22;20010;-65
2022/04/07 06:35:14;;;;;;;18.30;10.88;;;;;;;7.32;100.00;95122.31;6368229;22;20059;-68
2022/04/07 06:37:54;;;;;;;12.07;9.90;;;;;;;7.38;100.00;95127.00;6367676;22;20010;-64
2022/04/07 06:40:20;;;;;;;8.13;6.88;;;;;;;7.51;100.00;95137.22;6368058;22;20419;-62
2022/04/07 06:42:50;;;;;;;7.88;6.60;;;;;;;7.60;100.00;95141.66;6367982;22;20005;-65
2022/04/07 06:45:16;;;;;;;9.07;5.90;;;;;;;7.67;100.00;95146.34;6367619;22;20006;-65
2022/04/07 06:47:42;;;;;;;8.18;4.88;;;;;;;7.64;100.00;95146.63;6367352;22;20762;-63
2022/04/07 06:50:18;;;;;;;6.97;4.82;;;;;;;7.74;100.00;95158.75;6366765;22;20021;-64
2022/04/07 06:52:44;;;;;;;6.20;5.30;;;;;;;7.85;100.00;95155.19;6367948;22;20006;-64
2022/04/07 06:55:11;;;;;;;9.98;5.35;;;;;;;7.93;99.03;95156.28;6368181;22;20434;-64
2022/04/07 06:57:51;;;;;;;6.75;4.80;;;;;;;7.88;100.00;95147.03;6368258;22;20020;-64
2022/04/07 07:00:18;;;;;;;6.38;4.25;;;;;;;7.99;99.81;95146.06;6368060;22;20051;-62
2022/04/07 07:02:47;;;;;;;6.30;3.60;;;;;;;8.01;99.86;95133.63;6367791;22;20330;-63
2022/04/07 07:05:13;;;;;;;3.28;2.97;;;;;;;8.05;100.00;95128.13;6367788;22;20003;-64
2022/04/07 07:07:39;;;;;;;4.72;2.60;;;;;;;8.20;98.90;95129.34;6367948;22;19994;-63
2022/04/07 07:10:04;;;;;;;5.28;2.75;;;;;;;8.24;100.00;95129.91;6367801;22;20002;-63
2022/04/07 07:12:30;;;;;;;7.03;4.85;;;;;;;8.35;100.00;95121.03;6367930;22;20005;-63
2022/04/07 07:14:55;;;;;;;7.25;4.75;;;;;;;8.55;100.00;95120.03;6367919;22;20045;-63
2022/04/07 07:17:21;;;;;;;5.35;4.65;;;;;;;8.63;99.63;95121.09;6367464;22;20085;-64
2022/04/07 07:19:46;;;;;;;3.50;3.03;;;;;;;8.62;98.42;95129.94;6367926;22;20009;-64
2022/04/07 07:22:11;;;;;;;1.88;1.77;;;;;;;8.69;96.50;95123.16;6367582;22;20002;-64
2022/04/07 07:24:37;;;;;;;3.85;1.73;;;;;;;8.69;95.91;95113.50;6367914;22;20030;-64
2022/04/07 07:27:02;;;;;;;1.80;1.70;;;;;;;8.74;95.58;95113.06;6367631;22;20442;-64
2022/04/07 07:29:29;;;;;;;2.03;1.92;;;;;;;8.89;94.56;95100.28;6367762;22;20115;-64
2022/04/07 07:31:54;;;;;;;2.50;2.40;;;;;;;9.03;94.41;95106.84;6367579;22;19999;-64
2022/04/07 07:34:20;;;;;;;2.58;2.42;;;;;;;9.13;93.10;95098.91;6367493;22;20006;-64
2022/04/07 07:36:45;;;;;;;2.63;2.42;;;;;;;9.25;93.40;95083.75;6367463;22;20010;-63
2022/04/07 07:39:10;;;;;;;2.45;2.25;;;;;;;9.39;92.25;95074.53;6367508;22;20065;-64
2022/04/07 07:41:38;;;;;;;2.63;2.42;;;;;;;9.53;91.63;95070.56;6367659;22;19998;-64
2022/04/07 07:44:04;;;;;;;2.50;2.40;;;;;;;9.63;90.92;95076.56;6367675;22;20013;-64
2022/04/07 07:46:30;;;;;;;1.80;1.75;;;;;;;9.65;89.65;95072.00;6367541;22;20055;-64
2022/04/07 07:48:56;;;;;;;1.58;1.50;;;;;;;9.73;89.37;95081.75;6367383;22;20015;-64
2022/04/07 07:51:21;;;;;;;4.63;1.85;;;;;;;9.71;89.37;95086.31;6367347;22;20002;-64
2022/04/07 07:53:46;;;;;;;1.60;1.50;;;;;;;9.78;89.71;95083.91;6367658;22;20006;-64
2022/04/07 07:56:12;;;;;;;2.50;2.40;;;;;;;9.80;90.67;95084.56;6367170;22;20007;-64
2022/04/07 07:58:37;;;;;;;1.85;1.75;;;;;;;9.84;90.48;95073.63;6367185;22;20431;-64
2022/04/07 08:01:03;;;;;;;2.17;1.98;;;;;;;10.01;89.39;95074.56;6367270;22;20002;-63
2022/04/07 08:03:28;;;;;;;1.52;1.52;;;;;;;10.15;88.78;95067.09;6367225;22;19998;-63
2022/04/07 08:05:53;;;;;;;5.32;2.92;;;;;;;10.17;89.59;95067.75;6367344;22;19998;-64
2022/04/07 08:08:19;;;;;;;4.00;2.22;;;;;;;10.21;88.75;95070.91;6367299;22;20008;-64
2022/04/07 08:10:44;;;;;;;2.65;2.45;;;;;;;10.24;88.05;95060.88;6367170;22;20353;-64
2022/04/07 08:13:10;;;;;;;2.00;1.90;;;;;;;10.20;88.77;95062.19;6367041;22;20073;-63
2022/04/07 08:15:35;;;;;;;1.70;1.60;;;;;;;10.44;87.20;95069.44;6367292;22;20013;-63
2022/04/07 08:18:00;;;;;;;2.22;1.85;;;;;;;10.20;87.00;95077.97;6367151;22;20002;-63
2022/04/07 08:20:26;;;;;;;1.80;1.70;;;;;;;9.79;87.80;95096.06;6367004;22;20006;-63
2022/04/07 08:22:51;;;;;;;2.17;1.50;;;;;;;9.52;89.00;95097.81;6367209;22;19998;-64
2022/04/07 08:25:17;;;;;;;1.80;1.70;;;;;;;9.43;90.17;95099.53;6367105;22;19999;-64
2022/04/07 08:27:43;;;;;;;1.73;1.63;;;;;;;9.43;90.84;95094.28;6366703;22;20009;-64
2022/04/07 08:30:09;;;;;;;1.88;1.77;;;;;;;9.40;91.80;95098.03;6366998;22;20003;-64
2022/04/07 08:32:35;;;;;;;2.40;2.20;;;;;;;9.49;93.03;95101.56;6367208;22;20002;-64
2022/04/07 08:35:01;;;;;;;4.78;2.10;;;;;;;9.51;94.08;95112.78;6366894;22;20478;-64
2022/04/07 08:37:26;;;;;;;1.75;1.70;;;;;;;9.50;93.74;95113.72;6366893;22;20042;-65
2022/04/07 08:39:52;;;;;;;1.88;1.77;;;;;;;9.58;92.86;95123.47;6367182;22;20009;-64
2022/04/07 08:42:20;;;;;;;9.57;5.47;;;;;;;9.39;93.00;95125.25;6367157;22;19998;-64
2022/04/07 08:44:46;;;;;;;4.53;4.13;;;;;;;9.30;93.61;95126.16;6367331;22;20002;-64
2022/04/07 08:47:14;;;;;;;5.60;4.95;;;;;;;9.22;93.18;95131.34;6366834;22;19998;-64
2022/04/07 08:49:42;;;;;;;4.00;3.70;;;;;;;9.20;93.91;95135.91;6366846;22;20442;-64
2022/04/07 08:52:08;;;;;;;4.35;3.95;;;;;;;8.98;93.92;95141.41;6366839;22;20006;-64
2022/04/07 08:54:33;;;;;;;6.45;3.25;;;;;;;8.75;95.92;95140.97;6366889;22;20006;-64
2022/04/07 08:56:59;;;;;;;3.00;2.80;;;;;;;8.71;96.31;95147.44;6367148;22;20011;-64
2022/04/07 08:59:26;;;;;;;3.50;3.22;;;;;;;8.64;96.84;95141.13;6366708;22;20040;-63
2022/04/07 09:01:59;;;;;;;2.67;2.50;;;;;;;8.63;96.89;95137.69;6366791;22;20002;-64
2022/04/07 09:04:28;;;;;;;3.35;3.15;;;;;;;8.78;95.93;95129.34;6366437;22;20059;-64
2022/04/07 09:06:55;;;;;;;5.38;4.97;;;;;;;8.97;95.88;95120.56;6366789;22;19998;-64
2022/04/07 09:09:22;;;;;;;5.88;5.35;;;;;;;9.16;95.89;95117.81;6367044;22;20345;-64
2022/04/07 09:11:54;;;;;;;2.72;2.63;;;;;;;9.37;96.00;95127.22;6366726;22;20010;-64
2022/04/07 09:14:19;;;;;;;1.90;1.80;;;;;;;9.48;96.13;95120.13;6366767;22;20003;-64
2022/04/07 09:16:45;;;;;;;4.07;3.63;;;;;;;9.48;96.14;95125.38;6366702;22;20006;-64
2022/04/07 09:19:10;;;;;;;3.10;2.90;;;;;;;9.52;95.34;95118.84;6366804;22;20403;-64
2022/04/07 09:21:36;;;;;;;8.32;7.53;;;;;;;9.55;93.85;95115.91;6367130;22;20082;-64
2022/04/07 09:24:05;;;;;;;3.67;3.47;;;;;;;9.48;94.51;95114.84;6366829;22;20005;-64
2022/04/07 09:26:34;;;;;;;3.25;3.05;;;;;;;9.42;94.45;95108.38;6366688;22;19998;-64
2022/04/07 09:29:08;;;;;;;2.45;2.35;;;;;;;9.41;93.91;95114.63;6366657;22;20504;-64
2022/04/07 09:31:37;;;;;;;5.88;3.00;;;;;;;9.53;93.84;95115.22;6366667;22;20025;-64
2022/04/07 09:34:03;;;;;;;3.63;2.50;;;;;;;9.56;93.48;95122.81;6366686;22;20056;-64
2022/04/07 09:36:29;;;;;;;1.73;1.63;;;;;;;9.63;89.27;95110.75;6366593;22;20433;-65
2022/04/07 09:38:55;;;;;;;1.90;1.80;;;;;;;9.59;91.80;95117.25;6366914;22;19999;-64
2022/04/07 09:41:23;;;;;;;2.30;2.20;;;;;;;9.54;93.19;95116.88;6368986;22;20075;-64
2022/04/07 09:43:50;;;;;;;4.85;4.45;;;;;;;9.56;95.22;95115.75;6368462;22;20063;-64
2022/04/07 09:46:20;;;;;;;4.10;3.65;;;;;;;9.49;96.07;95117.31;6368351;22;20390;-67
2022/04/07 09:49:09;;;;;;;4.75;3.60;;;;;;;9.46;94.38;95122.88;6368492;22;20391;-64
2022/04/07 09:51:46;;;;;;;4.55;3.13;;;;;;;9.48;94.29;95126.19;6368484;22;20421;-64
2022/04/07 09:54:14;;;;;;;4.10;2.97;;;;;;;9.37;96.22;95123.78;6368554;22;19998;-64
2022/04/07 09:56:40;;;;;;;4.40;4.10;;;;;;;9.30;98.11;95128.78;6368877;22;20002;-65
2022/04/07 09:59:07;;;;;;;3.97;3.60;;;;;;;9.26;98.20;95137.94;6368571;22;20007;-64
2022/04/07 10:01:39;;;;;;;3.38;3.08;;;;;;;9.27;98.14;95139.59;6368722;22;20041;-64
2022/04/07 10:04:06;;;;;;;4.70;4.30;;;;;;;9.26;97.61;95144.00;6368131;22;20488;-63
2022/04/07 10:06:33;;;;;;;4.07;3.20;;;;;;;9.32;96.62;95135.56;6368557;22;20073;-63
2022/04/07 10:09:01;;;;;;;3.85;3.50;;;;;;;9.31;98.84;95130.44;6367614;22;20439;-63
2022/04/07 10:11:29;;;;;;;3.60;3.20;;;;;;;9.21;100.00;95132.31;6367698;22;20608;-63
2022/04/07 10:13:56;;;;;;;2.45;2.30;;;;;;;9.28;99.36;95131.59;6367703;22;20006;-64
2022/04/07 10:16:22;;;;;;;2.15;2.05;;;;;;;9.31;99.73;95133.06;6367933;22;20021;-62
2022/04/07 10:19:16;;;;;;;2.13;2.03;;;;;;;9.27;99.54;95126.47;6367643;22;20030;-63
2022/04/07 10:22:01;;;;;;;1.58;1.58;;;;;;;9.19;99.90;95126.38;6367554;22;20009;-63
2022/04/07 10:24:34;;;;;;;2.80;2.60;;;;;;;9.17;99.71;95132.63;6368274;22;20533;-63
2022/04/07 10:27:02;;;;;;;13.40;9.13;;;;;;;9.22;97.90;95126.09;6368377;22;20017;-62
2022/04/07 10:29:28;;;;;;;12.32;8.93;;;;;;;9.17;100.00;95127.38;6367928;22;19998;-64
2022/04/07 10:32:12;;;;;;;7.28;6.55;;;;;;;9.23;100.00;95131.19;6368130;22;20450;-62
2022/04/07 10:34:52;;;;;;;4.50;4.10;;;;;;;9.27;100.00;95135.16;6368356;22;20011;-62
2022/04/07 10:37:31;;;;;;;2.83;2.63;;;;;;;9.38;100.00;95126.25;6368086;22;20006;-62
2022/04/07 10:40:35;;;;;;;1.90;1.80;;;;;;;9.37;100.00;95134.28;6368196;22;20320;-63
2022/04/07 10:43:03;;;;;;;2.35;1.95;;;;;;;9.42;100.00;95132.03;6368151;22;20312;-63
2022/04/07 10:45:33;;;;;;;2.30;1.95;;;;;;;9.48;98.90;95138.50;6368068;22;20003;-62
2022/04/07 10:48:17;;;;;;;2.70;2.50;;;;;;;9.52;97.07;95132.81;6368015;22;20026;-62
2022/04/07 10:50:50;;;;;;;3.00;2.72;;;;;;;9.46;97.78;95133.38;6367375;22;20017;-62
2022/04/07 10:53:38;;;;;;;4.15;2.00;;;;;;;9.63;94.26;95137.03;6368025;22;20417;-62
2022/04/07 10:56:17;;;;;;;2.63;2.42;;;;;;;9.19;97.85;95139.53;6340067;22;20074;-63
2022/04/07 10:59:15;;;;;;;1.83;1.73;;;;;;;9.30;95.89;95149.81;6368023;22;20005;-63
2022/04/07 11:01:40;;;;;;;1.70;1.60;;;;;;;9.22;98.17;95141.84;6304378;22;20544;-63
2022/04/07 11:04:18;;;;;;;1.80;1.70;;;;;;;9.13;98.98;95140.94;6367993;22;20002;-62
2022/04/07 11:07:02;;;;;;;1.67;1.33;;;;;;;9.56;94.58;95149.94;6367643;22;19998;-62
2022/04/07 11:09:43;;;;;;;1.30;1.30;;;;;;;9.32;92.15;95147.84;6368291;22;20010;-62
2022/04/07 11:12:10;;;;;;;1.75;1.65;;;;;;;9.14;94.79;95147.84;6368017;22;20066;-62
2022/04/07 11:14:35;;;;;;;2.10;2.00;;;;;;;9.40;92.51;95136.63;6367779;22;20426;-63
2022/04/07 11:17:04;;;;;;;3.70;1.52;;;;;;;9.28;93.37;95144.72;6339701;22;20044;-64
2022/04/07 11:19:51;;;;;;;2.33;2.22;;;;;;;8.95;98.27;95131.19;6367585;22;20450;-64
2022/04/07 11:22:19;;;;;;;2.03;1.92;;;;;;;8.76;99.69;95131.28;6367497;22;20465;-64
2022/04/07 11:24:44;;;;;;;2.50;2.30;;;;;;;8.69;100.00;95142.34;6368110;22;20437;-64
2022/04/07 11:27:34;;;;;;;4.32;3.92;;;;;;;8.68;100.00;95134.63;6367731;22;20060;-64
2022/04/07 11:30:08;;;;;;;4.82;3.70;;;;;;;8.71;100.00;95139.56;6367808;22;20450;-62
2022/04/07 11:32:33;;;;;;;3.20;2.90;;;;;;;8.73;100.00;95132.38;6367771;22;20002;-64
2022/04/07 11:35:13;;;;;;;3.25;3.05;;;;;;;8.79;100.00;95138.84;6367536;22;20315;-64
2022/04/07 11:37:40;;;;;;;2.58;2.28;;;;;;;8.88;100.00;95130.13;6367407;22;20006;-64
2022/04/07 11:40:07;;;;;;;2.75;2.50;;;;;;;8.90;98.73;95133.44;6367908;22;20006;-64